sensor_id;sensor_type;location;lat;lon;timestamp;temperature;humidity
19870;DHT22;10097;50.862;4.696;2023-02-22T00:00:53;7.50;99.90
19870;DHT22;10097;50.862;4.696;2023-02-22T00:03:23;7.60;99.90
19870;DHT22;10097;50.862;4.696;2023-02-22T00:05:55;7.70;99.90
19870;DHT22;10097;50.862;4.696;2023-02-22T00:08:24;7.70;99.90
19870;DHT22;10097;50.862;4.696;2023-02-22T00:10:55;7.80;99.90
19870;DHT22;10097;50.862;4.696;2023-02-22T00:13:21;7.70;99.90
19870;DHT22;10097;50.862;4.696;2023-02-22T00:15:49;7.60;99.90
19870;DHT22;10097;50.862;4.696;2023-02-22T00:18:16;7.60;99.90
19870;DHT22;10097;50.862;4.696;2023-02-22T00:20:42;7.60;99.90
19870;DHT22;10097;50.862;4.696;2023-02-22T00:23:15;7.60;99.90
19870;DHT22;10097;50.862;4.696;2023-02-22T00:25:44;7.60;99.90
19870;DHT22;10097;50.862;4.696;2023-02-22T00:28:10;7.60;99.90
19870;DHT22;10097;50.862;4.696;2023-02-22T00:30:36;7.60;99.90
19870;DHT22;10097;50.862;4.696;2023-02-22T00:33:02;7.60;99.90
19870;DHT22;10097;50.862;4.696;2023-02-22T00:35:29;7.50;99.90
19870;DHT22;10097;50.862;4.696;2023-02-22T00:37:58;7.40;99.90
19870;DHT22;10097;50.862;4.696;2023-02-22T00:40:30;7.40;99.90
19870;DHT22;10097;50.862;4.696;2023-02-22T00:43:00;7.30;99.90
19870;DHT22;10097;50.862;4.696;2023-02-22T00:45:29;7.30;99.90
19870;DHT22;10097;50.862;4.696;2023-02-22T00:47:56;7.20;99.90
19870;DHT22;10097;50.862;4.696;2023-02-22T00:50:23;7.20;99.90
19870;DHT22;10097;50.862;4.696;2023-02-22T00:52:51;7.30;99.90
19870;DHT22;10097;50.862;4.696;2023-02-22T00:55:23;7.30;99.90
19870;DHT22;10097;50.862;4.696;2023-02-22T00:57:49;7.40;99.90
19870;DHT22;10097;50.862;4.696;2023-02-22T01:00:54;7.30;99.90
19870;DHT22;10097;50.862;4.696;2023-02-22T01:03:15;7.30;99.90
19870;DHT22;10097;50.862;4.696;2023-02-22T01:05:41;7.20;99.90
19870;DHT22;10097;50.862;4.696;2023-02-22T01:08:09;7.10;99.90
19870;DHT22;10097;50.862;4.696;2023-02-22T01:10:36;7.10;99.90
19870;DHT22;10097;50.862;4.696;2023-02-22T01:13:02;7.10;99.90
19870;DHT22;10097;50.862;4.696;2023-02-22T01:15:34;7.00;99.90
19870;DHT22;10097;50.862;4.696;2023-02-22T01:18:01;7.00;99.90
19870;DHT22;10097;50.862;4.696;2023-02-22T01:20:27;6.90;99.90
19870;DHT22;10097;50.862;4.696;2023-02-22T01:22:58;6.80;99.90
19870;DHT22;10097;50.862;4.696;2023-02-22T01:25:27;6.70;99.90
19870;DHT22;10097;50.862;4.696;2023-02-22T01:27:53;6.60;99.90
19870;DHT22;10097;50.862;4.696;2023-02-22T01:30:22;6.50;99.90
19870;DHT22;10097;50.862;4.696;2023-02-22T01:32:48;6.50;99.90
19870;DHT22;10097;50.862;4.696;2023-02-22T01:35:17;6.50;99.90
19870;DHT22;10097;50.862;4.696;2023-02-22T01:37:44;6.40;99.90
19870;DHT22;10097;50.862;4.696;2023-02-22T01:40:22;6.30;99.90
19870;DHT22;10097;50.862;4.696;2023-02-22T01:42:51;6.20;99.90
19870;DHT22;10097;50.862;4.696;2023-02-22T01:50:46;6.30;99.90
19870;DHT22;10097;50.862;4.696;2023-02-22T01:53:16;6.10;99.90
19870;DHT22;10097;50.862;4.696;2023-02-22T01:55:44;6.10;99.90
19870;DHT22;10097;50.862;4.696;2023-02-22T01:58:10;6.00;99.90
19870;DHT22;10097;50.862;4.696;2023-02-22T02:00:37;5.80;99.90
19870;DHT22;10097;50.862;4.696;2023-02-22T02:03:09;5.90;99.90
19870;DHT22;10097;50.862;4.696;2023-02-22T02:05:36;5.90;99.90
19870;DHT22;10097;50.862;4.696;2023-02-22T02:08:16;6.00;99.90
19870;DHT22;10097;50.862;4.696;2023-02-22T02:10:44;5.80;99.90
19870;DHT22;10097;50.862;4.696;2023-02-22T02:13:11;5.70;99.90
19870;DHT22;10097;50.862;4.696;2023-02-22T02:15:37;5.70;99.90
19870;DHT22;10097;50.862;4.696;2023-02-22T02:18:06;5.70;99.90
19870;DHT22;10097;50.862;4.696;2023-02-22T02:25:55;5.50;99.90
19870;DHT22;10097;50.862;4.696;2023-02-22T02:34:48;5.60;99.90
19870;DHT22;10097;50.862;4.696;2023-02-22T02:43:09;5.70;99.90
19870;DHT22;10097;50.862;4.696;2023-02-22T02:45:57;5.70;99.90
19870;DHT22;10097;50.862;4.696;2023-02-22T02:48:27;5.60;99.90
19870;DHT22;10097;50.862;4.696;2023-02-22T02:50:56;5.60;99.90
19870;DHT22;10097;50.862;4.696;2023-02-22T02:53:31;5.60;99.90
19870;DHT22;10097;50.862;4.696;2023-02-22T02:55:58;5.50;99.90
19870;DHT22;10097;50.862;4.696;2023-02-22T02:58:24;5.40;99.90
19870;DHT22;10097;50.862;4.696;2023-02-22T03:00:56;5.40;99.90
19870;DHT22;10097;50.862;4.696;2023-02-22T03:08:58;5.40;99.90
19870;DHT22;10097;50.862;4.696;2023-02-22T03:11:29;5.40;99.90
19870;DHT22;10097;50.862;4.696;2023-02-22T03:16:44;5.30;99.90
19870;DHT22;10097;50.862;4.696;2023-02-22T03:19:28;5.30;99.90
19870;DHT22;10097;50.862;4.696;2023-02-22T03:22:17;5.20;99.90
19870;DHT22;10097;50.862;4.696;2023-02-22T03:30:13;5.20;99.90
19870;DHT22;10097;50.862;4.696;2023-02-22T03:32:43;5.30;99.90
19870;DHT22;10097;50.862;4.696;2023-02-22T03:35:15;5.50;99.90
19870;DHT22;10097;50.862;4.696;2023-02-22T03:37:45;5.40;99.90
19870;DHT22;10097;50.862;4.696;2023-02-22T03:40:16;5.40;99.90
19870;DHT22;10097;50.862;4.696;2023-02-22T03:42:49;5.40;99.90
19870;DHT22;10097;50.862;4.696;2023-02-22T03:45:18;5.40;99.90
19870;DHT22;10097;50.862;4.696;2023-02-22T03:47:48;5.50;99.90
19870;DHT22;10097;50.862;4.696;2023-02-22T03:50:19;5.40;99.90
19870;DHT22;10097;50.862;4.696;2023-02-22T03:52:45;5.40;99.90
19870;DHT22;10097;50.862;4.696;2023-02-22T03:55:13;5.30;99.90
19870;DHT22;10097;50.862;4.696;2023-02-22T03:57:45;5.30;99.90
19870;DHT22;10097;50.862;4.696;2023-02-22T04:00:17;5.30;99.90
19870;DHT22;10097;50.862;4.696;2023-02-22T04:02:44;5.30;99.90
19870;DHT22;10097;50.862;4.696;2023-02-22T04:05:10;5.20;99.90
19870;DHT22;10097;50.862;4.696;2023-02-22T04:07:38;5.20;99.90
19870;DHT22;10097;50.862;4.696;2023-02-22T04:10:05;5.20;99.90
19870;DHT22;10097;50.862;4.696;2023-02-22T04:12:33;5.00;99.90
19870;DHT22;10097;50.862;4.696;2023-02-22T04:14:59;4.90;99.90
19870;DHT22;10097;50.862;4.696;2023-02-22T04:17:25;4.90;99.90
19870;DHT22;10097;50.862;4.696;2023-02-22T04:19:51;4.80;99.90
19870;DHT22;10097;50.862;4.696;2023-02-22T04:22:16;4.70;99.90
19870;DHT22;10097;50.862;4.696;2023-02-22T04:24:42;4.60;99.90
19870;DHT22;10097;50.862;4.696;2023-02-22T04:27:08;4.70;99.90
19870;DHT22;10097;50.862;4.696;2023-02-22T04:29:33;4.80;99.90
19870;DHT22;10097;50.862;4.696;2023-02-22T04:31:59;4.70;99.90
19870;DHT22;10097;50.862;4.696;2023-02-22T04:34:24;4.70;99.90
19870;DHT22;10097;50.862;4.696;2023-02-22T04:36:50;4.70;99.90
19870;DHT22;10097;50.862;4.696;2023-02-22T04:39:16;4.70;99.90
19870;DHT22;10097;50.862;4.696;2023-02-22T04:41:42;4.70;99.90
19870;DHT22;10097;50.862;4.696;2023-02-22T04:44:08;4.80;99.90
19870;DHT22;10097;50.862;4.696;2023-02-22T04:46:33;4.90;99.90
19870;DHT22;10097;50.862;4.696;2023-02-22T04:48:59;4.70;99.90
19870;DHT22;10097;50.862;4.696;2023-02-22T04:51:28;4.80;99.90
19870;DHT22;10097;50.862;4.696;2023-02-22T04:53:53;4.80;99.90
19870;DHT22;10097;50.862;4.696;2023-02-22T04:56:19;4.70;99.90
19870;DHT22;10097;50.862;4.696;2023-02-22T04:58:45;4.80;99.90
19870;DHT22;10097;50.862;4.696;2023-02-22T05:01:11;4.80;99.90
19870;DHT22;10097;50.862;4.696;2023-02-22T05:03:37;4.80;99.90
19870;DHT22;10097;50.862;4.696;2023-02-22T05:06:02;4.90;99.90
19870;DHT22;10097;50.862;4.696;2023-02-22T05:08:28;4.90;99.90
19870;DHT22;10097;50.862;4.696;2023-02-22T05:10:54;4.90;99.90
19870;DHT22;10097;50.862;4.696;2023-02-22T05:13:20;4.90;99.90
19870;DHT22;10097;50.862;4.696;2023-02-22T05:15:46;4.90;99.90
19870;DHT22;10097;50.862;4.696;2023-02-22T05:18:13;4.70;99.90
19870;DHT22;10097;50.862;4.696;2023-02-22T05:20:38;4.80;99.90
19870;DHT22;10097;50.862;4.696;2023-02-22T05:23:04;4.80;99.90
19870;DHT22;10097;50.862;4.696;2023-02-22T05:25:31;4.90;99.90
19870;DHT22;10097;50.862;4.696;2023-02-22T05:28:03;4.90;99.90
19870;DHT22;10097;50.862;4.696;2023-02-22T05:30:31;4.90;99.90
19870;DHT22;10097;50.862;4.696;2023-02-22T05:32:58;4.80;99.90
19870;DHT22;10097;50.862;4.696;2023-02-22T05:35:24;4.80;99.90
19870;DHT22;10097;50.862;4.696;2023-02-22T05:37:50;4.90;99.90
19870;DHT22;10097;50.862;4.696;2023-02-22T05:40:18;4.90;99.90
19870;DHT22;10097;50.862;4.696;2023-02-22T05:42:45;4.90;99.90
19870;DHT22;10097;50.862;4.696;2023-02-22T05:45:13;4.90;99.90
19870;DHT22;10097;50.862;4.696;2023-02-22T05:47:39;4.90;99.90
19870;DHT22;10097;50.862;4.696;2023-02-22T05:50:04;4.90;99.90
19870;DHT22;10097;50.862;4.696;2023-02-22T05:52:30;4.90;99.90
19870;DHT22;10097;50.862;4.696;2023-02-22T05:54:56;4.90;99.90
19870;DHT22;10097;50.862;4.696;2023-02-22T05:57:21;4.90;99.90
19870;DHT22;10097;50.862;4.696;2023-02-22T05:59:48;4.90;99.90
19870;DHT22;10097;50.862;4.696;2023-02-22T06:02:14;4.90;99.90
19870;DHT22;10097;50.862;4.696;2023-02-22T06:04:42;4.90;99.90
19870;DHT22;10097;50.862;4.696;2023-02-22T06:07:08;4.90;99.90
19870;DHT22;10097;50.862;4.696;2023-02-22T06:09:34;5.00;99.90
19870;DHT22;10097;50.862;4.696;2023-02-22T06:11:59;5.00;99.90
19870;DHT22;10097;50.862;4.696;2023-02-22T06:14:25;4.90;99.90
19870;DHT22;10097;50.862;4.696;2023-02-22T06:16:55;5.00;99.90
19870;DHT22;10097;50.862;4.696;2023-02-22T06:19:21;5.00;99.90
19870;DHT22;10097;50.862;4.696;2023-02-22T06:21:51;5.00;99.90
19870;DHT22;10097;50.862;4.696;2023-02-22T06:24:17;5.00;99.90
19870;DHT22;10097;50.862;4.696;2023-02-22T06:26:42;5.00;99.90
19870;DHT22;10097;50.862;4.696;2023-02-22T06:29:08;5.00;99.90
19870;DHT22;10097;50.862;4.696;2023-02-22T06:31:34;5.00;99.90
19870;DHT22;10097;50.862;4.696;2023-02-22T06:34:01;5.00;99.90
19870;DHT22;10097;50.862;4.696;2023-02-22T06:36:27;4.90;99.90
19870;DHT22;10097;50.862;4.696;2023-02-22T06:38:52;5.00;99.90
19870;DHT22;10097;50.862;4.696;2023-02-22T06:41:18;5.10;99.90
19870;DHT22;10097;50.862;4.696;2023-02-22T06:43:46;5.20;99.90
19870;DHT22;10097;50.862;4.696;2023-02-22T06:46:12;5.20;99.90
19870;DHT22;10097;50.862;4.696;2023-02-22T06:48:38;5.20;99.90
19870;DHT22;10097;50.862;4.696;2023-02-22T06:51:06;5.20;99.90
19870;DHT22;10097;50.862;4.696;2023-02-22T06:53:33;5.20;99.90
19870;DHT22;10097;50.862;4.696;2023-02-22T06:55:58;5.20;99.90
19870;DHT22;10097;50.862;4.696;2023-02-22T06:58:24;5.20;99.90
19870;DHT22;10097;50.862;4.696;2023-02-22T07:00:51;5.20;99.90
19870;DHT22;10097;50.862;4.696;2023-02-22T07:03:17;5.20;99.90
19870;DHT22;10097;50.862;4.696;2023-02-22T07:05:43;5.20;99.90
19870;DHT22;10097;50.862;4.696;2023-02-22T07:08:10;5.30;99.90
19870;DHT22;10097;50.862;4.696;2023-02-22T07:10:37;5.30;99.90
19870;DHT22;10097;50.862;4.696;2023-02-22T07:13:04;5.20;99.90
19870;DHT22;10097;50.862;4.696;2023-02-22T07:15:31;5.30;99.90
19870;DHT22;10097;50.862;4.696;2023-02-22T07:17:58;5.20;99.90
19870;DHT22;10097;50.862;4.696;2023-02-22T07:20:25;5.30;99.90
19870;DHT22;10097;50.862;4.696;2023-02-22T07:22:51;5.30;99.90
19870;DHT22;10097;50.862;4.696;2023-02-22T07:25:17;5.20;99.90
19870;DHT22;10097;50.862;4.696;2023-02-22T07:27:44;5.30;99.90
19870;DHT22;10097;50.862;4.696;2023-02-22T07:30:20;5.30;99.90
19870;DHT22;10097;50.862;4.696;2023-02-22T07:32:49;5.30;99.90
19870;DHT22;10097;50.862;4.696;2023-02-22T07:37:49;5.50;99.90
19870;DHT22;10097;50.862;4.696;2023-02-22T07:40:16;5.50;99.90
19870;DHT22;10097;50.862;4.696;2023-02-22T07:43:03;5.50;99.90
19870;DHT22;10097;50.862;4.696;2023-02-22T07:45:34;5.60;99.90
19870;DHT22;10097;50.862;4.696;2023-02-22T07:48:02;5.60;99.90
19870;DHT22;10097;50.862;4.696;2023-02-22T07:50:29;5.80;99.90
19870;DHT22;10097;50.862;4.696;2023-02-22T07:53:02;5.80;99.90
19870;DHT22;10097;50.862;4.696;2023-02-22T07:55:30;5.90;99.90
19870;DHT22;10097;50.862;4.696;2023-02-22T07:57:58;5.90;99.90
19870;DHT22;10097;50.862;4.696;2023-02-22T08:00:35;6.10;99.90
19870;DHT22;10097;50.862;4.696;2023-02-22T08:03:04;6.20;99.90
19870;DHT22;10097;50.862;4.696;2023-02-22T08:05:34;6.40;99.90
19870;DHT22;10097;50.862;4.696;2023-02-22T08:08:02;6.50;99.90
19870;DHT22;10097;50.862;4.696;2023-02-22T08:10:28;6.60;99.90
19870;DHT22;10097;50.862;4.696;2023-02-22T08:12:55;6.90;99.90
19870;DHT22;10097;50.862;4.696;2023-02-22T08:15:34;7.00;99.90
19870;DHT22;10097;50.862;4.696;2023-02-22T08:18:02;7.20;99.90
19870;DHT22;10097;50.862;4.696;2023-02-22T08:20:30;7.50;99.90
19870;DHT22;10097;50.862;4.696;2023-02-22T08:22:57;7.60;99.90
19870;DHT22;10097;50.862;4.696;2023-02-22T08:25:34;7.70;99.90
19870;DHT22;10097;50.862;4.696;2023-02-22T08:28:14;7.70;99.90
19870;DHT22;10097;50.862;4.696;2023-02-22T08:30:58;8.00;99.90
19870;DHT22;10097;50.862;4.696;2023-02-22T08:33:24;8.10;99.90
19870;DHT22;10097;50.862;4.696;2023-02-22T08:35:50;8.20;99.90
19870;DHT22;10097;50.862;4.696;2023-02-22T08:38:27;8.30;99.90
19870;DHT22;10097;50.862;4.696;2023-02-22T08:40:53;8.40;99.90
19870;DHT22;10097;50.862;4.696;2023-02-22T08:43:23;8.60;99.90
19870;DHT22;10097;50.862;4.696;2023-02-22T08:45:55;8.70;99.90
19870;DHT22;10097;50.862;4.696;2023-02-22T08:48:24;8.80;99.90
19870;DHT22;10097;50.862;4.696;2023-02-22T08:50:55;9.00;99.90
19870;DHT22;10097;50.862;4.696;2023-02-22T08:53:21;9.10;99.90
19870;DHT22;10097;50.862;4.696;2023-02-22T08:55:47;9.30;99.90
19870;DHT22;10097;50.862;4.696;2023-02-22T08:58:14;9.50;99.90
19870;DHT22;10097;50.862;4.696;2023-02-22T09:00:40;9.50;99.90
19870;DHT22;10097;50.862;4.696;2023-02-22T09:03:10;9.70;99.90
19870;DHT22;10097;50.862;4.696;2023-02-22T09:05:38;9.80;99.90
19870;DHT22;10097;50.862;4.696;2023-02-22T09:08:04;10.00;99.90
19870;DHT22;10097;50.862;4.696;2023-02-22T09:10:32;10.20;99.90
19870;DHT22;10097;50.862;4.696;2023-02-22T09:13:08;10.00;99.90
19870;DHT22;10097;50.862;4.696;2023-02-22T09:15:38;10.20;99.90
19870;DHT22;10097;50.862;4.696;2023-02-22T09:18:06;10.40;99.90
19870;DHT22;10097;50.862;4.696;2023-02-22T09:20:35;10.40;99.90
19870;DHT22;10097;50.862;4.696;2023-02-22T09:23:05;10.50;99.90
19870;DHT22;10097;50.862;4.696;2023-02-22T09:25:31;10.40;99.90
19870;DHT22;10097;50.862;4.696;2023-02-22T09:28:01;10.30;99.90
19870;DHT22;10097;50.862;4.696;2023-02-22T09:30:32;10.30;99.90
19870;DHT22;10097;50.862;4.696;2023-02-22T09:33:00;10.30;99.90
19870;DHT22;10097;50.862;4.696;2023-02-22T09:35:26;10.40;99.90
19870;DHT22;10097;50.862;4.696;2023-02-22T09:37:57;10.40;99.90
19870;DHT22;10097;50.862;4.696;2023-02-22T09:40:25;10.30;99.90
19870;DHT22;10097;50.862;4.696;2023-02-22T09:43:33;10.10;99.90
19870;DHT22;10097;50.862;4.696;2023-02-22T09:51:54;10.50;99.90
19870;DHT22;10097;50.862;4.696;2023-02-22T09:54:36;10.50;99.90
19870;DHT22;10097;50.862;4.696;2023-02-22T09:57:15;10.60;99.90
19870;DHT22;10097;50.862;4.696;2023-02-22T09:59:52;10.50;99.90
19870;DHT22;10097;50.862;4.696;2023-02-22T10:02:31;10.50;99.90
19870;DHT22;10097;50.862;4.696;2023-02-22T10:05:35;10.30;99.90
19870;DHT22;10097;50.862;4.696;2023-02-22T10:08:02;10.10;99.90
19870;DHT22;10097;50.862;4.696;2023-02-22T10:10:41;10.10;99.90
19870;DHT22;10097;50.862;4.696;2023-02-22T10:18:41;10.30;99.90
19870;DHT22;10097;50.862;4.696;2023-02-22T10:21:54;10.40;99.90
19870;DHT22;10097;50.862;4.696;2023-02-22T10:24:52;10.50;99.90
19870;DHT22;10097;50.862;4.696;2023-02-22T10:27:22;10.40;99.90
19870;DHT22;10097;50.862;4.696;2023-02-22T10:32:31;10.30;99.90
19870;DHT22;10097;50.862;4.696;2023-02-22T10:35:00;10.40;99.90
19870;DHT22;10097;50.862;4.696;2023-02-22T10:37:33;10.50;99.90
19870;DHT22;10097;50.862;4.696;2023-02-22T10:40:13;10.60;99.90
19870;DHT22;10097;50.862;4.696;2023-02-22T10:42:42;10.80;99.90
19870;DHT22;10097;50.862;4.696;2023-02-22T10:45:24;11.10;99.90
19870;DHT22;10097;50.862;4.696;2023-02-22T10:47:55;11.30;99.90
19870;DHT22;10097;50.862;4.696;2023-02-22T10:50:24;11.50;99.90
19870;DHT22;10097;50.862;4.696;2023-02-22T10:52:50;11.60;99.90
19870;DHT22;10097;50.862;4.696;2023-02-22T10:55:16;11.80;99.90
19870;DHT22;10097;50.862;4.696;2023-02-22T10:57:45;11.90;99.90
19870;DHT22;10097;50.862;4.696;2023-02-22T11:02:58;12.50;99.90
19870;DHT22;10097;50.862;4.696;2023-02-22T11:05:37;12.90;99.90
19870;DHT22;10097;50.862;4.696;2023-02-22T11:08:24;13.20;99.90
19870;DHT22;10097;50.862;4.696;2023-02-22T11:11:02;13.40;99.90
19870;DHT22;10097;50.862;4.696;2023-02-22T11:13:43;13.60;99.90
19870;DHT22;10097;50.862;4.696;2023-02-22T11:16:41;13.70;99.90
19870;DHT22;10097;50.862;4.696;2023-02-22T11:19:18;13.90;99.90
19870;DHT22;10097;50.862;4.696;2023-02-22T11:21:46;14.00;99.90
19870;DHT22;10097;50.862;4.696;2023-02-22T11:24:15;14.20;99.90
19870;DHT22;10097;50.862;4.696;2023-02-22T11:26:47;14.30;99.90
19870;DHT22;10097;50.862;4.696;2023-02-22T11:29:31;14.40;99.90
19870;DHT22;10097;50.862;4.696;2023-02-22T11:32:00;14.60;99.90
19870;DHT22;10097;50.862;4.696;2023-02-22T11:34:36;14.60;99.90
19870;DHT22;10097;50.862;4.696;2023-02-22T11:37:32;14.70;99.90
19870;DHT22;10097;50.862;4.696;2023-02-22T11:42:42;14.80;99.90
19870;DHT22;10097;50.862;4.696;2023-02-22T11:45:20;14.70;99.90
19870;DHT22;10097;50.862;4.696;2023-02-22T11:47:57;14.70;99.90
19870;DHT22;10097;50.862;4.696;2023-02-22T11:50:37;14.60;99.90
19870;DHT22;10097;50.862;4.696;2023-02-22T11:56:29;14.60;99.90
19870;DHT22;10097;50.862;4.696;2023-02-22T12:01:48;14.60;99.90
19870;DHT22;10097;50.862;4.696;2023-02-22T12:12:44;14.50;99.90
19870;DHT22;10097;50.862;4.696;2023-02-22T12:15:34;14.50;99.90
19870;DHT22;10097;50.862;4.696;2023-02-22T12:23:40;14.70;99.90
19870;DHT22;10097;50.862;4.696;2023-02-22T12:26:25;14.90;99.90
19870;DHT22;10097;50.862;4.696;2023-02-22T12:32:00;14.90;99.90
19870;DHT22;10097;50.862;4.696;2023-02-22T12:39:39;14.80;99.90
19870;DHT22;10097;50.862;4.696;2023-02-22T12:42:15;14.90;99.90
19870;DHT22;10097;50.862;4.696;2023-02-22T12:44:46;15.10;99.90
19870;DHT22;10097;50.862;4.696;2023-02-22T12:47:20;15.20;99.90
19870;DHT22;10097;50.862;4.696;2023-02-22T12:49:49;15.30;99.90
19870;DHT22;10097;50.862;4.696;2023-02-22T12:55:00;15.20;99.90
19870;DHT22;10097;50.862;4.696;2023-02-22T12:57:53;15.20;99.90
19870;DHT22;10097;50.862;4.696;2023-02-22T13:03:43;14.70;99.90
19870;DHT22;10097;50.862;4.696;2023-02-22T13:09:00;14.40;99.90
19870;DHT22;10097;50.862;4.696;2023-02-22T13:19:51;14.20;99.90
19870;DHT22;10097;50.862;4.696;2023-02-22T13:27:57;14.30;99.90
19870;DHT22;10097;50.862;4.696;2023-02-22T13:33:14;14.10;99.90
19870;DHT22;10097;50.862;4.696;2023-02-22T13:35:53;14.10;99.90
19870;DHT22;10097;50.862;4.696;2023-02-22T13:41:42;14.20;99.90
19870;DHT22;10097;50.862;4.696;2023-02-22T13:53:04;14.30;99.90
19870;DHT22;10097;50.862;4.696;2023-02-22T13:55:33;14.20;99.90
19870;DHT22;10097;50.862;4.696;2023-02-22T13:58:03;14.10;99.90
19870;DHT22;10097;50.862;4.696;2023-02-22T14:00:58;13.80;99.90
19870;DHT22;10097;50.862;4.696;2023-02-22T14:03:34;13.90;99.90
19870;DHT22;10097;50.862;4.696;2023-02-22T14:06:36;13.80;99.90
19870;DHT22;10097;50.862;4.696;2023-02-22T14:09:07;13.80;99.90
19870;DHT22;10097;50.862;4.696;2023-02-22T14:16:30;13.90;99.90
19870;DHT22;10097;50.862;4.696;2023-02-22T14:19:16;13.90;99.90
19870;DHT22;10097;50.862;4.696;2023-02-22T14:22:05;13.80;99.90
19870;DHT22;10097;50.862;4.696;2023-02-22T14:24:44;13.70;99.90
19870;DHT22;10097;50.862;4.696;2023-02-22T14:27:12;13.60;99.90
19870;DHT22;10097;50.862;4.696;2023-02-22T14:29:53;13.70;99.90
19870;DHT22;10097;50.862;4.696;2023-02-22T14:32:20;13.50;99.90
19870;DHT22;10097;50.862;4.696;2023-02-22T14:35:05;13.50;99.90
19870;DHT22;10097;50.862;4.696;2023-02-22T14:37:35;13.40;99.90
19870;DHT22;10097;50.862;4.696;2023-02-22T14:40:06;13.50;99.90
19870;DHT22;10097;50.862;4.696;2023-02-22T14:42:46;13.70;99.90
19870;DHT22;10097;50.862;4.696;2023-02-22T14:45:22;13.60;99.90
19870;DHT22;10097;50.862;4.696;2023-02-22T14:47:52;13.50;99.90
19870;DHT22;10097;50.862;4.696;2023-02-22T14:55:59;13.20;99.90
19870;DHT22;10097;50.862;4.696;2023-02-22T14:58:49;13.00;99.90
19870;DHT22;10097;50.862;4.696;2023-02-22T15:01:28;12.90;99.90
19870;DHT22;10097;50.862;4.696;2023-02-22T15:04:24;13.10;99.90
19870;DHT22;10097;50.862;4.696;2023-02-22T15:06:54;13.10;99.90
19870;DHT22;10097;50.862;4.696;2023-02-22T15:09:26;13.10;99.90
19870;DHT22;10097;50.862;4.696;2023-02-22T15:14:34;13.10;99.90
19870;DHT22;10097;50.862;4.696;2023-02-22T15:17:22;13.20;99.90
19870;DHT22;10097;50.862;4.696;2023-02-22T15:19:52;13.10;99.90
19870;DHT22;10097;50.862;4.696;2023-02-22T15:22:25;13.10;99.90
19870;DHT22;10097;50.862;4.696;2023-02-22T15:25:03;13.10;99.90
19870;DHT22;10097;50.862;4.696;2023-02-22T15:27:30;13.20;99.90
19870;DHT22;10097;50.862;4.696;2023-02-22T15:30:04;13.20;99.90
19870;DHT22;10097;50.862;4.696;2023-02-22T15:32:34;13.30;99.90
19870;DHT22;10097;50.862;4.696;2023-02-22T15:35:33;13.30;99.90
19870;DHT22;10097;50.862;4.696;2023-02-22T15:40:37;13.30;99.90
19870;DHT22;10097;50.862;4.696;2023-02-22T15:43:16;13.10;99.90
19870;DHT22;10097;50.862;4.696;2023-02-22T15:45:43;13.10;99.90
19870;DHT22;10097;50.862;4.696;2023-02-22T15:48:09;13.00;99.90
19870;DHT22;10097;50.862;4.696;2023-02-22T15:50:36;13.10;99.90
19870;DHT22;10097;50.862;4.696;2023-02-22T15:53:07;13.00;99.90
19870;DHT22;10097;50.862;4.696;2023-02-22T15:55:48;13.00;99.90
19870;DHT22;10097;50.862;4.696;2023-02-22T15:58:21;13.00;99.90
19870;DHT22;10097;50.862;4.696;2023-02-22T16:00:57;12.80;99.90
19870;DHT22;10097;50.862;4.696;2023-02-22T16:03:24;12.70;99.90
19870;DHT22;10097;50.862;4.696;2023-02-22T16:06:37;12.60;99.90
19870;DHT22;10097;50.862;4.696;2023-02-22T16:09:10;12.50;99.90
19870;DHT22;10097;50.862;4.696;2023-02-22T16:11:44;12.60;99.90
19870;DHT22;10097;50.862;4.696;2023-02-22T16:17:37;12.40;99.90
19870;DHT22;10097;50.862;4.696;2023-02-22T16:22:42;12.20;99.90
19870;DHT22;10097;50.862;4.696;2023-02-22T16:27:54;12.10;99.90
19870;DHT22;10097;50.862;4.696;2023-02-22T16:30:37;12.20;99.90
19870;DHT22;10097;50.862;4.696;2023-02-22T16:33:08;12.00;99.90
19870;DHT22;10097;50.862;4.696;2023-02-22T16:35:39;11.90;99.90
19870;DHT22;10097;50.862;4.696;2023-02-22T16:38:07;11.80;99.90
19870;DHT22;10097;50.862;4.696;2023-02-22T16:40:47;11.70;99.90
19870;DHT22;10097;50.862;4.696;2023-02-22T16:43:18;11.60;99.90
19870;DHT22;10097;50.862;4.696;2023-02-22T16:45:44;11.50;99.90
19870;DHT22;10097;50.862;4.696;2023-02-22T16:48:18;11.30;99.90
19870;DHT22;10097;50.862;4.696;2023-02-22T16:50:44;11.40;99.90
19870;DHT22;10097;50.862;4.696;2023-02-22T16:53:14;11.60;99.90
19870;DHT22;10097;50.862;4.696;2023-02-22T16:55:44;11.50;99.90
19870;DHT22;10097;50.862;4.696;2023-02-22T16:58:13;11.60;99.90
19870;DHT22;10097;50.862;4.696;2023-02-22T17:00:39;11.40;99.90
19870;DHT22;10097;50.862;4.696;2023-02-22T17:03:13;11.40;99.90
19870;DHT22;10097;50.862;4.696;2023-02-22T17:05:38;11.40;99.90
19870;DHT22;10097;50.862;4.696;2023-02-22T17:08:04;11.40;99.90
19870;DHT22;10097;50.862;4.696;2023-02-22T17:10:30;11.40;99.90
19870;DHT22;10097;50.862;4.696;2023-02-22T17:12:56;11.40;99.90
19870;DHT22;10097;50.862;4.696;2023-02-22T17:15:25;11.30;99.90
19870;DHT22;10097;50.862;4.696;2023-02-22T17:17:52;11.40;99.90
19870;DHT22;10097;50.862;4.696;2023-02-22T17:20:19;11.50;99.90
19870;DHT22;10097;50.862;4.696;2023-02-22T17:23:01;11.50;99.90
19870;DHT22;10097;50.862;4.696;2023-02-22T17:25:32;11.50;99.90
19870;DHT22;10097;50.862;4.696;2023-02-22T17:27:58;11.60;99.90
19870;DHT22;10097;50.862;4.696;2023-02-22T17:30:26;11.60;99.90
19870;DHT22;10097;50.862;4.696;2023-02-22T17:32:52;11.60;99.90
19870;DHT22;10097;50.862;4.696;2023-02-22T17:35:21;11.60;99.90
19870;DHT22;10097;50.862;4.696;2023-02-22T17:37:51;11.50;99.90
19870;DHT22;10097;50.862;4.696;2023-02-22T17:40:17;11.40;99.90
19870;DHT22;10097;50.862;4.696;2023-02-22T17:42:44;11.30;99.90
19870;DHT22;10097;50.862;4.696;2023-02-22T17:45:11;11.30;99.90
19870;DHT22;10097;50.862;4.696;2023-02-22T17:47:40;11.40;99.90
19870;DHT22;10097;50.862;4.696;2023-02-22T17:50:07;11.40;99.90
19870;DHT22;10097;50.862;4.696;2023-02-22T17:52:34;11.40;99.90
19870;DHT22;10097;50.862;4.696;2023-02-22T17:54:59;11.30;99.90
19870;DHT22;10097;50.862;4.696;2023-02-22T17:57:25;11.30;99.90
19870;DHT22;10097;50.862;4.696;2023-02-22T17:59:51;11.30;99.90
19870;DHT22;10097;50.862;4.696;2023-02-22T18:02:16;11.30;99.90
19870;DHT22;10097;50.862;4.696;2023-02-22T18:04:42;11.40;99.90
19870;DHT22;10097;50.862;4.696;2023-02-22T18:07:07;11.50;99.90
19870;DHT22;10097;50.862;4.696;2023-02-22T18:09:33;11.50;99.90
19870;DHT22;10097;50.862;4.696;2023-02-22T18:12:00;11.60;99.90
19870;DHT22;10097;50.862;4.696;2023-02-22T18:14:25;11.40;99.90
19870;DHT22;10097;50.862;4.696;2023-02-22T18:16:52;11.40;99.90
19870;DHT22;10097;50.862;4.696;2023-02-22T18:19:17;11.30;99.90
19870;DHT22;10097;50.862;4.696;2023-02-22T18:21:44;11.40;99.90
19870;DHT22;10097;50.862;4.696;2023-02-22T18:24:10;11.30;99.90
19870;DHT22;10097;50.862;4.696;2023-02-22T18:26:36;11.30;99.90
19870;DHT22;10097;50.862;4.696;2023-02-22T18:29:05;11.30;99.90
19870;DHT22;10097;50.862;4.696;2023-02-22T18:31:31;11.40;99.90